createdAt,value
2023-01-23T00:00:11.095Z,99.99
2023-01-23T00:01:11.098Z,99.99
2023-01-23T00:02:11.103Z,99.99
2023-01-23T00:03:11.039Z,99.99
2023-01-23T00:04:11.107Z,99.99
2023-01-23T00:05:11.035Z,99.99
2023-01-23T00:06:11.015Z,99.99
2023-01-23T00:07:11.037Z,99.99
2023-01-23T00:08:10.997Z,99.99
2023-01-23T00:09:11.061Z,99.99
2023-01-23T00:10:11.062Z,99.99
2023-01-23T00:11:11.015Z,99.99
2023-01-23T00:12:10.972Z,99.99
2023-01-23T00:13:11.017Z,99.99
2023-01-23T00:14:10.981Z,99.99
2023-01-23T00:15:10.977Z,99.99
2023-01-23T00:16:11.001Z,99.99
2023-01-23T00:17:10.915Z,99.99
2023-01-23T00:18:10.909Z,99.99
2023-01-23T00:19:10.938Z,99.99
2023-01-23T00:20:10.960Z,99.99
2023-01-23T00:21:10.912Z,99.99
2023-01-23T00:22:12.795Z,99.99
2023-01-23T00:23:10.888Z,99.99
2023-01-23T00:24:10.921Z,99.99
2023-01-23T00:25:10.880Z,99.99
2023-01-23T00:26:10.915Z,99.99
2023-01-23T00:27:11.856Z,99.99
2023-01-23T00:28:10.879Z,99.99
2023-01-23T00:29:10.869Z,99.99
2023-01-23T00:30:10.816Z,99.99
2023-01-23T00:31:10.919Z,99.99
2023-01-23T00:32:10.849Z,99.99
2023-01-23T00:33:10.803Z,99.99
2023-01-23T00:34:10.808Z,99.99
2023-01-23T00:35:10.813Z,99.99
2023-01-23T00:36:10.786Z,99.99
2023-01-23T00:37:10.765Z,99.99
2023-01-23T00:38:10.846Z,99.99
2023-01-23T00:39:10.759Z,99.99
2023-01-23T00:40:10.796Z,99.99
2023-01-23T00:41:10.778Z,99.99
2023-01-23T00:42:10.796Z,99.99
2023-01-23T00:43:10.757Z,99.99
2023-01-23T00:44:11.733Z,99.99
2023-01-23T00:45:10.737Z,99.99
2023-01-23T00:46:10.748Z,99.99
2023-01-23T00:47:10.694Z,99.99
2023-01-23T00:48:10.726Z,99.99
2023-01-23T00:49:10.691Z,99.99
2023-01-23T00:50:10.705Z,99.99
2023-01-23T00:51:10.673Z,99.99
2023-01-23T00:52:10.700Z,99.99
2023-01-23T00:53:10.687Z,99.99
2023-01-23T00:54:10.684Z,99.99
2023-01-23T00:55:10.745Z,99.99
2023-01-23T00:56:10.625Z,99.99
2023-01-23T00:57:10.609Z,99.99
2023-01-23T00:58:16.511Z,99.99
2023-01-23T00:59:11.666Z,99.99
2023-01-23T01:00:10.623Z,99.99
2023-01-23T01:01:10.566Z,99.99
2023-01-23T01:02:10.616Z,99.99
2023-01-23T01:03:10.662Z,99.99
2023-01-23T01:04:10.550Z,99.99
2023-01-23T01:05:10.570Z,99.99
2023-01-23T01:06:10.627Z,99.99
2023-01-23T01:07:10.545Z,99.99
2023-01-23T01:08:10.507Z,99.99
2023-01-23T01:09:10.550Z,99.99
2023-01-23T01:10:10.548Z,99.99
2023-01-23T01:11:10.637Z,99.99
2023-01-23T01:12:10.513Z,99.99
2023-01-23T01:13:10.509Z,99.99
2023-01-23T01:14:10.548Z,99.99
2023-01-23T01:15:10.559Z,99.99
2023-01-23T01:16:10.595Z,99.99
2023-01-23T01:17:10.549Z,99.99
2023-01-23T01:18:10.468Z,99.99
2023-01-23T01:19:10.461Z,99.99
2023-01-23T01:20:10.526Z,99.99
2023-01-23T01:21:10.600Z,99.99
2023-01-23T01:22:10.493Z,99.88
2023-01-23T01:23:10.480Z,99.99
2023-01-23T01:24:10.444Z,99.93
2023-01-23T01:25:10.455Z,99.93
2023-01-23T01:26:10.516Z,99.83
2023-01-23T01:27:10.527Z,98.99
2023-01-23T01:28:10.395Z,99.41
2023-01-23T01:29:10.541Z,98.89
2023-01-23T01:30:10.496Z,99.31
2023-01-23T01:31:10.596Z,99.31
2023-01-23T01:32:10.358Z,99.83
2023-01-23T01:33:10.383Z,98.99
2023-01-23T01:34:10.357Z,98.99
2023-01-23T01:35:10.425Z,98.58
2023-01-23T01:36:10.422Z,98.89
2023-01-23T01:37:10.342Z,98.89
2023-01-23T01:38:10.354Z,98.79
2023-01-23T01:39:10.545Z,98.05
2023-01-23T01:40:10.333Z,97.91
2023-01-23T01:41:10.300Z,98.01
2023-01-23T01:42:10.269Z,97.95
2023-01-23T01:43:10.428Z,98.16
2023-01-23T01:44:10.323Z,98.01
2023-01-23T01:45:10.280Z,97.32
2023-01-23T01:46:10.348Z,97.43
2023-01-23T01:47:10.388Z,97.17
2023-01-23T01:48:10.324Z,97.07
2023-01-23T01:49:10.274Z,96.97
2023-01-23T01:50:12.263Z,96.44
2023-01-23T01:51:11.249Z,96.44
2023-01-23T01:52:10.250Z,96.23
2023-01-23T01:53:10.252Z,96.13
2023-01-23T01:54:10.204Z,95.82
2023-01-23T01:55:10.193Z,95.72
2023-01-23T01:56:10.301Z,96.03
2023-01-23T01:57:10.183Z,96.03
2023-01-23T01:58:10.173Z,96.13
2023-01-23T01:59:10.321Z,96.13
2023-01-23T02:00:10.153Z,96.03
2023-01-23T02:01:10.267Z,96.13
2023-01-23T02:02:10.187Z,95.82
2023-01-23T02:03:10.224Z,95.92
2023-01-23T02:04:10.153Z,96.13
2023-01-23T02:05:10.186Z,95.92
2023-01-23T02:06:10.275Z,95.92
2023-01-23T02:07:10.144Z,95.19
2023-01-23T02:08:10.128Z,95.61
2023-01-23T02:09:10.185Z,95.50
2023-01-23T02:10:10.147Z,95.40
2023-01-23T02:11:10.075Z,95.61
2023-01-23T02:12:10.084Z,95.46
2023-01-23T02:13:10.046Z,95.50
2023-01-23T02:14:10.048Z,95.92
2023-01-23T02:15:10.037Z,95.72
2023-01-23T02:16:10.024Z,95.82
2023-01-23T02:17:10.043Z,95.92
2023-01-23T02:18:10.053Z,96.23
2023-01-23T02:19:10.098Z,96.23
2023-01-23T02:20:09.987Z,96.44
2023-01-23T02:21:10.071Z,96.55
2023-01-23T02:22:10.035Z,96.34
2023-01-23T02:23:10.011Z,96.97
2023-01-23T02:24:10.017Z,97.70
2023-01-23T02:25:09.928Z,97.38
2023-01-23T02:26:09.957Z,97.28
2023-01-23T02:27:09.938Z,98.01
2023-01-23T02:28:09.950Z,98.16
2023-01-23T02:29:10.068Z,97.32
2023-01-23T02:30:10.063Z,98.16
2023-01-23T02:31:09.927Z,98.05
2023-01-23T02:32:10.014Z,97.85
2023-01-23T02:33:09.881Z,98.01
2023-01-23T02:34:09.899Z,97.91
2023-01-23T02:35:09.929Z,97.74
2023-01-23T02:36:09.891Z,97.53
2023-01-23T02:37:09.964Z,98.05
2023-01-23T02:38:09.819Z,98.01
2023-01-23T02:39:09.847Z,98.01
2023-01-23T02:40:09.835Z,98.11
2023-01-23T02:41:09.818Z,97.85
2023-01-23T02:42:09.864Z,97.91
2023-01-23T02:43:09.824Z,97.32
2023-01-23T02:44:09.850Z,96.49
2023-01-23T02:45:09.770Z,96.23
2023-01-23T02:46:10.023Z,96.55
2023-01-23T02:47:09.938Z,96.76
2023-01-23T02:48:09.783Z,96.86
2023-01-23T02:49:09.744Z,96.44
2023-01-23T02:50:09.784Z,96.59
2023-01-23T02:51:09.901Z,96.55
2023-01-23T02:52:09.899Z,96.76
2023-01-23T02:53:09.750Z,97.07
2023-01-23T02:54:09.734Z,97.11
2023-01-23T02:55:09.705Z,97.59
2023-01-23T02:56:09.696Z,97.64
2023-01-23T02:57:09.769Z,97.28
2023-01-23T02:58:09.679Z,97.07
2023-01-23T02:59:09.720Z,97.17
2023-01-23T03:00:09.670Z,96.44
2023-01-23T03:01:09.797Z,96.55
2023-01-23T03:02:09.856Z,96.44
2023-01-23T03:03:09.722Z,96.44
2023-01-23T03:04:09.718Z,96.13
2023-01-23T03:05:09.733Z,95.82
2023-01-23T03:06:09.704Z,95.50
2023-01-23T03:07:09.691Z,95.72
2023-01-23T03:08:09.673Z,95.72
2023-01-23T03:09:09.627Z,95.50
2023-01-23T03:10:09.655Z,95.61
2023-01-23T03:11:09.607Z,95.61
2023-01-23T03:12:09.660Z,95.61
2023-01-23T03:13:09.715Z,95.61
2023-01-23T03:14:10.586Z,95.61
2023-01-23T03:15:09.570Z,95.82
2023-01-23T03:16:09.616Z,95.29
2023-01-23T03:17:09.599Z,95.50
2023-01-23T03:18:09.585Z,95.50
2023-01-23T03:19:09.570Z,95.61
2023-01-23T03:20:09.536Z,95.92
2023-01-23T03:21:09.529Z,95.29
2023-01-23T03:22:09.533Z,96.13
2023-01-23T03:23:09.631Z,95.72
2023-01-23T03:24:09.572Z,95.61
2023-01-23T03:25:09.575Z,95.40
2023-01-23T03:26:09.463Z,94.98
2023-01-23T03:27:09.472Z,95.29
2023-01-23T03:28:09.568Z,94.78
2023-01-23T03:29:09.486Z,94.78
2023-01-23T03:30:09.467Z,94.78
2023-01-23T03:31:09.502Z,94.67
2023-01-23T03:32:09.476Z,94.61
2023-01-23T03:33:09.519Z,94.57
2023-01-23T03:34:09.501Z,94.25
2023-01-23T03:35:09.544Z,94.04
2023-01-23T03:36:12.768Z,94.35
2023-01-23T03:37:09.423Z,94.78
2023-01-23T03:38:09.575Z,93.94
2023-01-23T03:39:09.474Z,93.73
2023-01-23T03:40:09.549Z,93.21
2023-01-23T03:41:09.459Z,93.48
2023-01-23T03:42:09.449Z,93.10
2023-01-23T03:43:09.346Z,93.31
2023-01-23T03:44:09.423Z,93.00
2023-01-23T03:45:09.344Z,93.00
2023-01-23T03:46:09.407Z,93.41
2023-01-23T03:47:09.324Z,92.69
2023-01-23T03:48:09.288Z,93.00
2023-01-23T03:49:09.421Z,92.85
2023-01-23T03:50:09.348Z,92.85
2023-01-23T03:51:09.312Z,93.94
2023-01-23T03:52:09.374Z,94.04
2023-01-23T03:53:09.403Z,93.73
2023-01-23T03:54:09.309Z,93.84
2023-01-23T03:55:09.391Z,93.63
2023-01-23T03:56:09.293Z,94.46
2023-01-23T03:57:09.292Z,94.35
2023-01-23T03:58:09.237Z,94.57
2023-01-23T03:59:09.298Z,94.15
2023-01-23T04:00:09.298Z,94.25
2023-01-23T04:01:09.321Z,94.78
2023-01-23T04:02:09.249Z,94.94
2023-01-23T04:03:09.279Z,94.78
2023-01-23T04:04:09.234Z,94.67
2023-01-23T04:05:09.235Z,94.67
2023-01-23T04:06:09.247Z,94.78
2023-01-23T04:07:09.225Z,95.50
2023-01-23T04:08:09.211Z,95.50
2023-01-23T04:09:09.178Z,95.50
2023-01-23T04:10:10.769Z,95.61
2023-01-23T04:11:09.236Z,95.50
2023-01-23T04:12:09.153Z,95.50
2023-01-23T04:13:09.145Z,94.78
2023-01-23T04:14:09.129Z,94.46
2023-01-23T04:15:09.144Z,94.67
2023-01-23T04:16:09.163Z,94.82
2023-01-23T04:17:09.075Z,94.25
2023-01-23T04:18:09.120Z,94.15
2023-01-23T04:19:09.149Z,94.57
2023-01-23T04:20:09.152Z,94.15
2023-01-23T04:21:09.078Z,94.35
2023-01-23T04:22:09.104Z,94.78
2023-01-23T04:23:09.071Z,94.78
2023-01-23T04:24:09.175Z,94.67
2023-01-23T04:25:09.083Z,94.88
2023-01-23T04:26:09.035Z,94.82
2023-01-23T04:27:09.148Z,95.29
2023-01-23T04:28:09.063Z,95.03
2023-01-23T04:29:09.133Z,94.98
2023-01-23T04:30:09.119Z,95.03
2023-01-23T04:31:09.061Z,95.29
2023-01-23T04:32:09.028Z,95.03
2023-01-23T04:33:09.041Z,95.82
2023-01-23T04:34:09.097Z,95.55
2023-01-23T04:35:09.058Z,95.61
2023-01-23T04:36:08.971Z,95.61
2023-01-23T04:37:09.487Z,95.61
2023-01-23T04:38:09.074Z,95.50
2023-01-23T04:39:09.033Z,95.61
2023-01-23T04:40:09.043Z,95.61
2023-01-23T04:41:08.988Z,95.65
2023-01-23T04:42:09.013Z,95.29
2023-01-23T04:43:08.976Z,96.07
2023-01-23T04:44:08.908Z,95.92
2023-01-23T04:45:08.912Z,95.86
2023-01-23T04:46:08.995Z,95.92
2023-01-23T04:47:41.618Z,95.76
2023-01-23T04:48:08.822Z,95.97
2023-01-23T04:49:08.817Z,95.76
2023-01-23T04:50:08.856Z,95.97
2023-01-23T04:51:08.863Z,96.07
2023-01-23T04:52:08.791Z,96.17
2023-01-23T04:53:08.793Z,96.49
2023-01-23T04:54:08.780Z,96.38
2023-01-23T04:55:08.793Z,96.70
2023-01-23T04:56:08.760Z,96.44
2023-01-23T04:57:08.757Z,96.59
2023-01-23T04:58:08.746Z,96.38
2023-01-23T04:59:08.808Z,96.28
2023-01-23T05:00:08.743Z,95.97
2023-01-23T05:01:08.809Z,95.97
2023-01-23T05:02:08.754Z,95.97
2023-01-23T05:03:08.705Z,95.97
2023-01-23T05:04:08.697Z,95.44
2023-01-23T05:05:08.689Z,95.44
2023-01-23T05:06:08.712Z,95.23
2023-01-23T05:07:08.678Z,95.72
2023-01-23T05:08:08.691Z,95.97
2023-01-23T05:09:08.686Z,95.72
2023-01-23T05:10:08.651Z,96.17
2023-01-23T05:11:08.677Z,96.38
2023-01-23T05:12:08.641Z,96.49
2023-01-23T05:13:08.632Z,96.38
2023-01-23T05:14:08.624Z,96.49
2023-01-23T05:15:08.689Z,96.59
2023-01-23T05:16:08.695Z,96.59
2023-01-23T05:17:08.602Z,96.28
2023-01-23T05:18:08.606Z,96.49
2023-01-23T05:19:08.616Z,97.01
2023-01-23T05:20:08.579Z,96.91
2023-01-23T05:21:08.599Z,97.64
2023-01-23T05:22:08.566Z,97.64
2023-01-23T05:23:08.552Z,97.11
2023-01-23T05:24:08.545Z,97.01
2023-01-23T05:25:08.543Z,96.64
2023-01-23T05:26:08.558Z,96.70
2023-01-23T05:27:08.527Z,97.32
2023-01-23T05:28:10.281Z,97.11
2023-01-23T05:29:08.506Z,97.64
2023-01-23T05:30:08.498Z,97.32
2023-01-23T05:31:08.684Z,97.53
2023-01-23T05:32:08.479Z,97.74
2023-01-23T05:33:08.470Z,97.05
2023-01-23T05:34:08.461Z,97.43
2023-01-23T05:35:08.456Z,97.53
2023-01-23T05:36:08.476Z,97.53
2023-01-23T05:37:08.481Z,97.64
2023-01-23T05:38:08.427Z,97.68
2023-01-23T05:39:08.431Z,98.05
2023-01-23T05:40:08.416Z,97.89
2023-01-23T05:41:08.446Z,97.43
2023-01-23T05:42:08.402Z,97.43
2023-01-23T05:43:08.397Z,97.27
2023-01-23T05:44:08.383Z,97.89
2023-01-23T05:45:08.379Z,97.85
2023-01-23T05:46:08.417Z,97.32
2023-01-23T05:47:08.472Z,97.58
2023-01-23T05:48:08.360Z,97.32
2023-01-23T05:49:08.351Z,97.27
2023-01-23T05:50:08.347Z,98.31
2023-01-23T05:51:08.399Z,98.05
2023-01-23T05:52:08.358Z,97.78
2023-01-23T05:53:08.325Z,97.95
2023-01-23T05:54:08.319Z,97.74
2023-01-23T05:55:08.311Z,97.74
2023-01-23T05:56:08.305Z,98.10
2023-01-23T05:57:08.318Z,97.74
2023-01-23T05:58:08.281Z,97.74
2023-01-23T05:59:08.277Z,97.68
2023-01-23T06:00:08.257Z,97.74
2023-01-23T06:01:09.261Z,97.58
2023-01-23T06:02:08.284Z,97.78
2023-01-23T06:03:08.312Z,97.74
2023-01-23T06:04:08.237Z,97.99
2023-01-23T06:05:08.231Z,97.74
2023-01-23T06:06:08.218Z,97.95
2023-01-23T06:07:08.240Z,97.53
2023-01-23T06:08:08.207Z,97.64
2023-01-23T06:09:08.192Z,97.99
2023-01-23T06:10:09.856Z,97.78
2023-01-23T06:11:09.176Z,97.95
2023-01-23T06:12:08.200Z,97.89
2023-01-23T06:13:08.160Z,97.89
2023-01-23T06:14:08.159Z,97.64
2023-01-23T06:15:08.141Z,97.74
2023-01-23T06:16:10.610Z,98.26
2023-01-23T06:17:09.155Z,98.05
2023-01-23T06:18:08.181Z,98.26
2023-01-23T06:19:08.186Z,98.26
2023-01-23T06:20:08.117Z,97.95
2023-01-23T06:21:08.126Z,97.85
2023-01-23T06:22:08.120Z,97.53
2023-01-23T06:23:08.083Z,98.26
2023-01-23T06:24:08.090Z,97.53
2023-01-23T06:25:08.068Z,98.05
2023-01-23T06:26:08.053Z,97.85
2023-01-23T06:27:08.050Z,97.85
2023-01-23T06:28:08.083Z,97.95
2023-01-23T06:29:08.036Z,97.22
2023-01-23T06:30:08.026Z,97.11
2023-01-23T06:31:08.085Z,97.53
2023-01-23T06:32:08.043Z,97.32
2023-01-23T06:33:08.005Z,97.64
2023-01-23T06:34:07.999Z,97.74
2023-01-23T06:35:07.996Z,97.43
2023-01-23T06:36:07.987Z,97.47
2023-01-23T06:37:07.973Z,98.16
2023-01-23T06:38:07.988Z,97.85
2023-01-23T06:39:07.960Z,97.53
2023-01-23T06:40:07.944Z,97.74
2023-01-23T06:41:07.945Z,97.53
2023-01-23T06:42:07.930Z,97.74
2023-01-23T06:43:07.957Z,97.85
2023-01-23T06:44:08.911Z,97.64
2023-01-23T06:45:07.916Z,97.85
2023-01-23T06:46:07.971Z,98.05
2023-01-23T06:47:07.887Z,97.78
2023-01-23T06:48:07.925Z,97.85
2023-01-23T06:49:07.874Z,97.99
2023-01-23T06:50:07.871Z,97.85
2023-01-23T06:51:07.979Z,98.16
2023-01-23T06:52:07.856Z,98.10
2023-01-23T06:53:07.887Z,97.95
2023-01-23T06:54:07.832Z,97.74
2023-01-23T06:55:07.828Z,98.10
2023-01-23T06:56:07.817Z,98.16
2023-01-23T06:57:07.814Z,97.85
2023-01-23T06:58:07.827Z,97.85
2023-01-23T06:59:07.793Z,97.89
2023-01-23T07:00:07.798Z,97.68
2023-01-23T07:01:07.780Z,97.85
2023-01-23T07:02:07.793Z,97.85
2023-01-23T07:03:07.834Z,97.89
2023-01-23T07:04:07.757Z,97.99
2023-01-23T07:05:07.750Z,98.31
2023-01-23T07:06:07.748Z,97.58
2023-01-23T07:07:07.820Z,98.41
2023-01-23T07:08:07.757Z,97.95
2023-01-23T07:09:07.722Z,98.05
2023-01-23T07:10:07.714Z,97.99
2023-01-23T07:11:07.711Z,98.31
2023-01-23T07:12:07.701Z,97.89
2023-01-23T07:13:07.730Z,98.10
2023-01-23T07:14:07.674Z,97.37
2023-01-23T07:15:07.722Z,97.43
2023-01-23T07:16:07.707Z,97.95
2023-01-23T07:17:07.639Z,97.95
2023-01-23T07:18:08.671Z,98.21
2023-01-23T07:19:07.639Z,97.43
2023-01-23T07:20:07.634Z,97.32
2023-01-23T07:21:07.628Z,97.43
2023-01-23T07:22:07.611Z,97.64
2023-01-23T07:23:07.712Z,97.11
2023-01-23T07:24:07.602Z,97.58
2023-01-23T07:25:07.607Z,97.11
2023-01-23T07:26:07.585Z,97.68
2023-01-23T07:27:07.578Z,98.05
2023-01-23T07:28:07.602Z,97.74
2023-01-23T07:29:07.564Z,97.64
2023-01-23T07:30:07.560Z,98.10
2023-01-23T07:31:07.732Z,98.05
2023-01-23T07:32:10.092Z,97.85
2023-01-23T07:33:07.549Z,97.53
2023-01-23T07:34:08.524Z,97.43
2023-01-23T07:35:07.512Z,97.22
2023-01-23T07:36:07.518Z,97.64
2023-01-23T07:37:07.502Z,97.32
2023-01-23T07:38:07.524Z,97.22
2023-01-23T07:39:07.566Z,97.53
2023-01-23T07:40:07.477Z,96.49
2023-01-23T07:41:07.464Z,96.91
2023-01-23T07:42:07.453Z,96.91
2023-01-23T07:43:07.487Z,96.91
2023-01-23T07:44:07.446Z,96.91
2023-01-23T07:45:07.434Z,96.49
2023-01-23T07:46:07.413Z,96.38
2023-01-23T07:47:08.419Z,96.59
2023-01-23T07:48:07.437Z,96.70
2023-01-23T07:49:07.398Z,96.28
2023-01-23T07:50:07.397Z,96.49
2023-01-23T07:51:07.502Z,96.23
2023-01-23T07:52:07.377Z,96.07
2023-01-23T07:53:07.396Z,96.70
2023-01-23T07:54:07.361Z,96.44
2023-01-23T07:55:07.422Z,95.65
2023-01-23T07:56:07.352Z,96.13
2023-01-23T07:57:07.339Z,96.17
2023-01-23T07:58:07.361Z,95.86
2023-01-23T07:59:07.321Z,96.28
2023-01-23T08:00:07.312Z,96.59
2023-01-23T08:01:07.353Z,96.13
2023-01-23T08:02:07.289Z,96.03
2023-01-23T08:03:07.316Z,96.44
2023-01-23T08:04:07.373Z,96.28
2023-01-23T08:05:07.274Z,96.49
2023-01-23T08:06:07.279Z,96.13
2023-01-23T08:07:07.255Z,96.17
2023-01-23T08:08:13.536Z,96.07
2023-01-23T08:09:09.255Z,95.82
2023-01-23T08:10:07.242Z,96.07
2023-01-23T08:11:07.311Z,95.82
2023-01-23T08:12:07.240Z,95.82
2023-01-23T08:13:07.256Z,95.97
2023-01-23T08:14:07.216Z,95.76
2023-01-23T08:15:07.199Z,96.03
2023-01-23T08:16:07.275Z,96.07
2023-01-23T08:17:07.199Z,95.82
2023-01-23T08:18:07.221Z,95.97
2023-01-23T08:19:07.184Z,96.07
2023-01-23T08:20:07.157Z,96.13
2023-01-23T08:21:07.157Z,96.03
2023-01-23T08:22:07.147Z,96.28
2023-01-23T08:23:07.167Z,96.13
2023-01-23T08:24:07.331Z,96.13
2023-01-23T08:25:07.124Z,95.82
2023-01-23T08:26:07.122Z,96.44
2023-01-23T08:27:07.188Z,96.34
2023-01-23T08:28:07.133Z,96.23
2023-01-23T08:29:07.104Z,96.03
2023-01-23T08:30:07.091Z,96.28
2023-01-23T08:31:07.140Z,96.44
2023-01-23T08:32:07.130Z,96.13
2023-01-23T08:33:07.107Z,96.34
2023-01-23T08:34:07.111Z,96.55
2023-01-23T08:35:07.060Z,96.23
2023-01-23T08:36:07.901Z,96.03
2023-01-23T08:37:07.035Z,96.13
2023-01-23T08:38:07.080Z,96.07
2023-01-23T08:39:07.028Z,96.34
2023-01-23T08:40:07.013Z,96.49
2023-01-23T08:41:07.011Z,96.34
2023-01-23T08:42:06.994Z,96.44
2023-01-23T08:43:07.026Z,96.55
2023-01-23T08:44:07.006Z,96.44
2023-01-23T08:45:06.977Z,96.34
2023-01-23T08:46:07.069Z,96.34
2023-01-23T08:47:06.964Z,96.44
2023-01-23T08:48:06.983Z,96.44
2023-01-23T08:49:06.955Z,96.34
2023-01-23T08:50:06.941Z,96.23
2023-01-23T08:51:06.981Z,96.13
2023-01-23T08:52:06.930Z,96.66
2023-01-23T08:53:06.945Z,96.44
2023-01-23T08:54:06.904Z,96.66
2023-01-23T08:55:06.905Z,96.13
2023-01-23T08:56:06.889Z,96.09
2023-01-23T08:57:06.885Z,96.03
2023-01-23T08:58:06.907Z,96.44
2023-01-23T08:59:06.991Z,96.23
2023-01-23T09:00:06.867Z,96.19
2023-01-23T09:01:06.908Z,95.98
2023-01-23T09:02:06.893Z,96.40
2023-01-23T09:03:06.868Z,96.03
2023-01-23T09:04:06.829Z,96.71
2023-01-23T09:05:06.826Z,96.34
2023-01-23T09:06:06.827Z,96.55
2023-01-23T09:07:06.814Z,96.66
2023-01-23T09:08:06.820Z,96.97
2023-01-23T09:09:07.797Z,96.86
2023-01-23T09:10:06.793Z,96.61
2023-01-23T09:11:06.784Z,97.03
2023-01-23T09:12:06.773Z,96.86
2023-01-23T09:13:06.791Z,96.50
2023-01-23T09:14:06.802Z,96.66
2023-01-23T09:15:06.832Z,96.34
2023-01-23T09:16:06.750Z,96.66
2023-01-23T09:17:06.731Z,96.44
2023-01-23T09:18:06.765Z,96.86
2023-01-23T09:19:06.725Z,96.66
2023-01-23T09:20:06.708Z,96.92
2023-01-23T09:21:08.677Z,96.19
2023-01-23T09:22:07.696Z,95.98
2023-01-23T09:23:06.715Z,95.98
2023-01-23T09:24:06.678Z,96.19
2023-01-23T09:25:06.678Z,96.50
2023-01-23T09:26:06.667Z,96.61
2023-01-23T09:27:06.650Z,96.61
2023-01-23T09:28:06.646Z,96.30
2023-01-23T09:29:06.653Z,96.40
2023-01-23T09:30:07.638Z,96.50
2023-01-23T09:31:06.777Z,96.92
2023-01-23T09:32:06.622Z,96.71
2023-01-23T09:33:06.605Z,97.03
2023-01-23T09:34:06.636Z,96.61
2023-01-23T09:35:06.643Z,96.82
2023-01-23T09:36:06.593Z,96.50
2023-01-23T09:37:06.567Z,96.50
2023-01-23T09:38:06.569Z,96.30
2023-01-23T09:39:06.589Z,96.19
2023-01-23T09:40:06.548Z,96.55
2023-01-23T09:41:06.544Z,96.76
2023-01-23T09:42:08.330Z,96.86
2023-01-23T09:43:07.534Z,96.66
2023-01-23T09:44:06.556Z,96.82
2023-01-23T09:45:06.523Z,96.92
2023-01-23T09:46:06.552Z,96.71
2023-01-23T09:47:06.575Z,96.40
2023-01-23T09:48:06.494Z,96.30
2023-01-23T09:49:06.516Z,96.15
2023-01-23T09:50:06.475Z,95.56
2023-01-23T09:51:06.503Z,96.09
2023-01-23T09:52:06.464Z,96.50
2023-01-23T09:53:06.455Z,96.19
2023-01-23T09:54:06.471Z,96.30
2023-01-23T09:55:06.438Z,96.30
2023-01-23T09:56:06.426Z,95.98
2023-01-23T09:57:06.427Z,96.40
2023-01-23T09:58:06.416Z,96.09
2023-01-23T09:59:06.441Z,95.98
2023-01-23T10:00:06.398Z,96.09
2023-01-23T10:01:06.421Z,95.78
2023-01-23T10:02:06.419Z,95.88
2023-01-23T10:03:06.389Z,96.09
2023-01-23T10:04:06.478Z,96.30
2023-01-23T10:05:06.367Z,96.30
2023-01-23T10:06:06.369Z,96.61
2023-01-23T10:07:06.344Z,96.40
2023-01-23T10:08:06.358Z,95.67
2023-01-23T10:09:06.361Z,95.56
2023-01-23T10:10:07.138Z,95.98
2023-01-23T10:11:07.319Z,95.78
2023-01-23T10:12:06.309Z,95.88
2023-01-23T10:13:06.300Z,95.42
2023-01-23T10:14:06.320Z,95.67
2023-01-23T10:15:06.351Z,95.36
2023-01-23T10:16:06.278Z,95.67
2023-01-23T10:17:06.311Z,95.98
2023-01-23T10:18:06.278Z,95.04
2023-01-23T10:19:06.362Z,95.25
2023-01-23T10:20:06.249Z,95.88
2023-01-23T10:21:06.238Z,95.78
2023-01-23T10:22:06.244Z,95.73
2023-01-23T10:23:06.240Z,95.73
2023-01-23T10:24:06.272Z,96.19
2023-01-23T10:25:06.217Z,95.98
2023-01-23T10:26:06.196Z,95.73
2023-01-23T10:27:06.191Z,95.78
2023-01-23T10:28:06.183Z,95.52
2023-01-23T10:29:06.199Z,96.04
2023-01-23T10:30:06.180Z,95.78
2023-01-23T10:31:06.249Z,95.94
2023-01-23T10:32:06.156Z,95.67
2023-01-23T10:33:06.143Z,95.73
2023-01-23T10:34:06.183Z,95.83
2023-01-23T10:35:06.207Z,95.31
2023-01-23T10:36:06.127Z,95.17
2023-01-23T10:37:06.115Z,94.17
2023-01-23T10:38:06.105Z,94.69
2023-01-23T10:39:06.123Z,94.48
2023-01-23T10:40:06.086Z,94.48
2023-01-23T10:41:06.083Z,94.94
2023-01-23T10:42:06.084Z,94.84
2023-01-23T10:43:06.079Z,94.94
2023-01-23T10:44:06.065Z,94.90
2023-01-23T10:45:06.081Z,94.17
2023-01-23T10:46:06.064Z,94.43
2023-01-23T10:47:42.761Z,94.02
2023-01-23T10:48:06.416Z,94.33
2023-01-23T10:49:07.031Z,94.17
2023-01-23T10:50:06.044Z,93.50
2023-01-23T10:51:06.159Z,93.33
2023-01-23T10:52:06.021Z,93.75
2023-01-23T10:53:06.026Z,93.60
2023-01-23T10:54:06.575Z,93.85
2023-01-23T10:55:07.007Z,93.54
2023-01-23T10:56:05.983Z,93.65
2023-01-23T10:57:05.962Z,93.75
2023-01-23T10:58:05.969Z,93.85
2023-01-23T10:59:05.947Z,94.37
2023-01-23T11:00:05.980Z,93.65
2023-01-23T11:01:05.979Z,94.02
2023-01-23T11:02:06.904Z,94.27
2023-01-23T11:03:07.023Z,94.06
2023-01-23T11:04:05.925Z,93.91
2023-01-23T11:05:05.956Z,93.81
2023-01-23T11:06:05.906Z,93.50
2023-01-23T11:07:06.022Z,93.81
2023-01-23T11:08:05.888Z,94.12
2023-01-23T11:09:05.866Z,93.77
2023-01-23T11:10:06.906Z,94.23
2023-01-23T11:11:05.875Z,93.60
2023-01-23T11:12:05.864Z,92.66
2023-01-23T11:13:05.866Z,92.66
2023-01-23T11:14:05.837Z,93.02
2023-01-23T11:15:05.869Z,93.29
2023-01-23T11:16:05.906Z,93.71
2023-01-23T11:17:05.830Z,93.81
2023-01-23T11:18:05.809Z,93.81
2023-01-23T11:19:05.813Z,93.66
2023-01-23T11:20:05.832Z,92.87
2023-01-23T11:21:05.814Z,92.56
2023-01-23T11:22:05.797Z,93.85
2023-01-23T11:23:05.862Z,93.40
2023-01-23T11:24:05.779Z,94.12
2023-01-23T11:25:05.817Z,93.71
2023-01-23T11:26:05.753Z,93.60
2023-01-23T11:27:05.752Z,93.50
2023-01-23T11:28:05.748Z,93.71
2023-01-23T11:29:05.750Z,93.60
2023-01-23T11:30:05.727Z,93.85
2023-01-23T11:31:14.033Z,93.81
2023-01-23T11:32:07.813Z,94.02
2023-01-23T11:33:05.709Z,94.02
2023-01-23T11:34:05.697Z,94.54
2023-01-23T11:35:07.333Z,93.91
2023-01-23T11:36:05.706Z,93.81
2023-01-23T11:37:05.669Z,93.50
2023-01-23T11:38:05.659Z,93.91
2023-01-23T11:39:06.732Z,94.23
2023-01-23T11:40:05.657Z,94.02
2023-01-23T11:41:05.675Z,94.43
2023-01-23T11:42:05.641Z,94.54
2023-01-23T11:43:05.636Z,94.43
2023-01-23T11:44:07.354Z,94.12
2023-01-23T11:45:05.614Z,93.91
2023-01-23T11:46:05.680Z,94.33
2023-01-23T11:47:05.593Z,94.43
2023-01-23T11:48:05.588Z,94.75
2023-01-23T11:49:05.579Z,94.64
2023-01-23T11:50:05.582Z,95.64
2023-01-23T11:51:05.650Z,93.81
2023-01-23T11:52:05.552Z,94.18
2023-01-23T11:53:05.577Z,94.49
2023-01-23T11:54:05.572Z,94.08
2023-01-23T11:55:05.611Z,93.87
2023-01-23T11:56:05.535Z,93.87
2023-01-23T11:57:05.549Z,93.98
2023-01-23T11:58:05.510Z,93.91
2023-01-23T11:59:05.532Z,94.23
2023-01-23T12:00:05.509Z,94.18
2023-01-23T12:01:05.502Z,94.60
2023-01-23T12:02:05.504Z,94.18
2023-01-23T12:03:05.556Z,93.87
2023-01-23T12:04:05.577Z,93.83
2023-01-23T12:05:05.462Z,93.93
2023-01-23T12:07:07.515Z,92.68
2023-01-23T12:08:05.433Z,93.10
2023-01-23T12:09:05.433Z,93.66
2023-01-23T12:10:05.417Z,94.18
2023-01-23T12:11:05.508Z,93.77
2023-01-23T12:12:05.421Z,94.29
2023-01-23T12:13:05.384Z,94.18
2023-01-23T12:14:05.385Z,94.08
2023-01-23T12:15:05.530Z,94.29
2023-01-23T12:16:11.261Z,94.56
2023-01-23T12:17:07.334Z,94.18
2023-01-23T12:18:06.903Z,93.62
2023-01-23T12:19:07.122Z,93.56
2023-01-23T12:20:06.193Z,93.62
2023-01-23T12:21:07.314Z,93.93
2023-01-23T12:22:08.125Z,93.41
2023-01-23T12:23:08.683Z,92.89
2023-01-23T12:24:08.689Z,93.52
2023-01-23T12:25:07.690Z,94.04
2023-01-23T12:26:06.692Z,92.79
2023-01-23T12:27:07.166Z,93.20
2023-01-23T12:28:06.958Z,93.20
2023-01-23T12:29:07.173Z,92.27
2023-01-23T12:30:06.120Z,93.41
2023-01-23T12:31:08.700Z,92.64
2023-01-23T12:32:07.289Z,92.16
2023-01-23T12:33:08.123Z,92.52
2023-01-23T12:34:07.123Z,92.93
2023-01-23T12:35:08.195Z,93.46
2023-01-23T12:36:06.823Z,93.24
2023-01-23T12:37:14.233Z,93.98
2023-01-23T12:38:09.631Z,93.56
2023-01-23T12:39:08.182Z,93.93
2023-01-23T12:40:08.455Z,93.04
2023-01-23T12:41:08.648Z,93.20
2023-01-23T12:42:07.687Z,92.89
2023-01-23T12:43:09.174Z,92.68
2023-01-23T12:44:08.213Z,92.79
2023-01-23T12:45:08.632Z,92.06
2023-01-23T12:46:07.704Z,92.89
2023-01-23T12:47:05.837Z,92.58
2023-01-23T12:48:07.630Z,92.54
2023-01-23T12:49:09.683Z,92.43
2023-01-23T12:50:10.196Z,92.33
2023-01-23T12:51:07.163Z,92.64
2023-01-23T12:52:07.831Z,91.71
2023-01-23T12:53:08.128Z,91.50